createdAt,value
2022-12-04T00:00:05.853Z,97.52
2022-12-04T00:01:05.860Z,97.62
2022-12-04T00:02:05.779Z,97.31
2022-12-04T00:03:06.312Z,97.00
2022-12-04T00:04:05.772Z,97.00
2022-12-04T00:05:07.746Z,97.00
2022-12-04T00:06:05.738Z,96.89
2022-12-04T00:07:05.786Z,97.00
2022-12-04T00:08:05.824Z,97.10
2022-12-04T00:09:05.952Z,97.10
2022-12-04T00:10:06.138Z,97.31
2022-12-04T00:11:05.758Z,97.20
2022-12-04T00:12:05.779Z,97.00
2022-12-04T00:13:05.666Z,97.00
2022-12-04T00:14:07.461Z,97.10
2022-12-04T00:16:05.749Z,97.00
2022-12-04T00:17:06.024Z,97.10
2022-12-04T00:18:05.608Z,97.10
2022-12-04T00:19:05.618Z,96.89
2022-12-04T00:20:05.645Z,96.68
2022-12-04T00:21:06.528Z,96.68
2022-12-04T00:22:05.606Z,96.68
2022-12-04T00:23:05.717Z,96.89
2022-12-04T00:24:05.831Z,96.89
2022-12-04T00:25:06.157Z,96.89
2022-12-04T00:26:05.544Z,96.89
2022-12-04T00:27:05.532Z,96.89
2022-12-04T00:28:05.551Z,97.00
2022-12-04T00:29:05.586Z,97.00
2022-12-04T00:30:05.522Z,97.00
2022-12-04T00:31:06.115Z,97.00
2022-12-04T00:32:05.760Z,96.89
2022-12-04T00:33:05.511Z,96.89
2022-12-04T00:34:08.045Z,96.78
2022-12-04T00:35:05.634Z,96.89
2022-12-04T00:36:05.436Z,96.89
2022-12-04T00:37:05.499Z,96.89
2022-12-04T00:38:05.783Z,96.89
2022-12-04T00:39:05.469Z,97.00
2022-12-04T00:40:05.451Z,96.89
2022-12-04T00:41:05.599Z,96.78
2022-12-04T00:42:05.392Z,96.78
2022-12-04T00:43:05.389Z,96.89
2022-12-04T00:44:06.091Z,97.00
2022-12-04T00:45:05.629Z,97.00
2022-12-04T00:46:05.388Z,96.89
2022-12-04T00:47:05.419Z,96.89
2022-12-04T00:48:05.345Z,97.10
2022-12-04T00:49:05.358Z,97.31
2022-12-04T00:50:05.382Z,97.41
2022-12-04T00:51:05.397Z,97.20
2022-12-04T00:52:05.637Z,97.00
2022-12-04T00:53:05.353Z,97.10
2022-12-04T00:54:05.318Z,97.20
2022-12-04T00:55:05.320Z,97.31
2022-12-04T00:56:05.232Z,97.41
2022-12-04T00:57:05.255Z,97.20
2022-12-04T00:58:05.255Z,97.10
2022-12-04T00:59:05.727Z,97.10
2022-12-04T01:00:05.249Z,97.10
2022-12-04T01:01:05.267Z,97.20
2022-12-04T01:02:05.175Z,97.20
2022-12-04T01:03:05.269Z,96.78
2022-12-04T01:04:05.147Z,96.68
2022-12-04T01:05:05.199Z,96.58
2022-12-04T01:06:05.408Z,96.68
2022-12-04T01:07:05.512Z,96.58
2022-12-04T01:08:05.220Z,96.58
2022-12-04T01:09:05.105Z,96.58
2022-12-04T01:10:05.182Z,96.68
2022-12-04T01:11:05.161Z,96.68
2022-12-04T01:12:05.072Z,96.78
2022-12-04T01:13:05.346Z,96.78
2022-12-04T01:14:06.525Z,96.58
2022-12-04T01:15:05.098Z,96.47
2022-12-04T01:16:05.092Z,96.47
2022-12-04T01:17:05.071Z,96.37
2022-12-04T01:18:05.010Z,96.47
2022-12-04T01:19:04.992Z,96.47
2022-12-04T01:20:05.283Z,96.47
2022-12-04T01:21:04.986Z,96.16
2022-12-04T01:22:04.954Z,95.95
2022-12-04T01:23:04.981Z,95.84
2022-12-04T01:24:04.956Z,95.95
2022-12-04T01:25:04.974Z,96.16
2022-12-04T01:26:04.933Z,96.16
2022-12-04T01:27:05.222Z,95.95
2022-12-04T01:28:04.902Z,96.05
2022-12-04T01:29:04.913Z,96.05
2022-12-04T01:30:04.925Z,96.16
2022-12-04T01:31:04.866Z,96.16
2022-12-04T01:32:04.926Z,96.05
2022-12-04T01:33:04.845Z,96.16
2022-12-04T01:34:05.165Z,96.26
2022-12-04T01:35:04.881Z,96.05
2022-12-04T01:36:04.841Z,95.84
2022-12-04T01:37:04.837Z,95.43
2022-12-04T01:38:04.790Z,95.43
2022-12-04T01:39:04.798Z,95.53
2022-12-04T01:40:04.878Z,95.74
2022-12-04T01:41:05.111Z,95.84
2022-12-04T01:42:04.764Z,95.95
2022-12-04T01:43:04.773Z,95.64
2022-12-04T01:44:04.732Z,95.53
2022-12-04T01:45:04.729Z,95.64
2022-12-04T01:46:04.851Z,95.64
2022-12-04T01:47:04.771Z,95.64
2022-12-04T01:48:04.974Z,95.64
2022-12-04T01:49:04.698Z,95.64
2022-12-04T01:50:04.694Z,95.64
2022-12-04T01:51:04.669Z,95.53
2022-12-04T01:52:04.648Z,95.43
2022-12-04T01:53:04.687Z,95.43
2022-12-04T01:54:04.633Z,95.43
2022-12-04T01:55:04.912Z,95.43
2022-12-04T01:56:04.613Z,95.43
2022-12-04T01:57:04.639Z,95.53
2022-12-04T01:58:04.630Z,95.53
2022-12-04T01:59:04.635Z,95.53
2022-12-04T02:00:04.578Z,95.53
2022-12-04T02:01:08.401Z,95.53
2022-12-04T02:02:04.964Z,95.43
2022-12-04T02:03:04.676Z,95.43
2022-12-04T02:04:04.600Z,95.53
2022-12-04T02:05:04.605Z,95.74
2022-12-04T02:06:04.615Z,95.74
2022-12-04T02:07:04.525Z,95.74
2022-12-04T02:08:04.543Z,95.74
2022-12-04T02:09:04.788Z,95.64
2022-12-04T02:10:04.480Z,95.53
2022-12-04T02:11:04.511Z,95.64
2022-12-04T02:12:04.454Z,95.53
2022-12-04T02:13:04.464Z,95.64
2022-12-04T02:14:04.475Z,95.74
2022-12-04T02:15:04.469Z,95.74
2022-12-04T02:16:04.800Z,95.74
2022-12-04T02:17:04.484Z,95.74
2022-12-04T02:18:04.385Z,95.74
2022-12-04T02:19:04.393Z,95.64
2022-12-04T02:20:04.473Z,95.64
2022-12-04T02:21:04.370Z,95.64
2022-12-04T02:22:04.403Z,95.64
2022-12-04T02:23:04.375Z,95.64
2022-12-04T02:24:04.328Z,95.64
2022-12-04T02:25:04.317Z,95.53
2022-12-04T02:26:04.307Z,95.53
2022-12-04T02:27:04.310Z,95.64
2022-12-04T02:28:04.587Z,95.53
2022-12-04T02:29:04.331Z,95.53
2022-12-04T02:30:04.283Z,95.53
2022-12-04T02:31:04.372Z,95.53
2022-12-04T02:32:04.248Z,95.64
2022-12-04T02:33:04.254Z,95.53
2022-12-04T02:34:04.235Z,95.38
2022-12-04T02:35:04.265Z,95.38
2022-12-04T02:36:04.230Z,95.38
2022-12-04T02:37:04.209Z,95.38
2022-12-04T02:38:04.194Z,95.38
2022-12-04T02:39:04.188Z,95.28
2022-12-04T02:40:04.490Z,95.17
2022-12-04T02:41:04.194Z,95.07
2022-12-04T02:42:04.143Z,95.07
2022-12-04T02:43:04.150Z,95.17
2022-12-04T02:44:04.123Z,95.17
2022-12-04T02:45:04.120Z,95.17
2022-12-04T02:46:04.175Z,95.07
2022-12-04T02:47:04.440Z,95.07
2022-12-04T02:48:04.073Z,94.96
2022-12-04T02:49:04.117Z,95.07
2022-12-04T02:50:04.071Z,94.96
2022-12-04T02:51:04.057Z,94.96
2022-12-04T02:52:04.040Z,94.96
2022-12-04T02:53:04.079Z,94.86
2022-12-04T02:54:04.321Z,94.96
2022-12-04T02:55:08.163Z,94.76
2022-12-04T02:56:04.007Z,94.76
2022-12-04T02:57:04.003Z,94.65
2022-12-04T02:58:03.982Z,94.76
2022-12-04T02:59:04.026Z,94.76
2022-12-04T03:00:03.987Z,94.86
2022-12-04T03:01:04.273Z,94.86
2022-12-04T03:02:04.045Z,94.96
2022-12-04T03:03:03.966Z,95.07
2022-12-04T03:04:03.962Z,95.07
2022-12-04T03:05:03.950Z,95.17
2022-12-04T03:06:03.896Z,95.17
2022-12-04T03:07:03.895Z,95.17
2022-12-04T03:08:04.239Z,94.96
2022-12-04T03:09:03.873Z,95.17
2022-12-04T03:10:03.856Z,95.38
2022-12-04T03:11:03.885Z,95.49
2022-12-04T03:12:03.838Z,95.38
2022-12-04T03:13:03.843Z,95.38
2022-12-04T03:14:03.854Z,95.38
2022-12-04T03:15:04.132Z,95.38
2022-12-04T03:16:03.814Z,95.49
2022-12-04T03:17:03.913Z,95.38
2022-12-04T03:18:03.784Z,95.38
2022-12-04T03:19:03.790Z,95.49
2022-12-04T03:20:03.782Z,95.59
2022-12-04T03:21:03.749Z,95.80
2022-12-04T03:22:04.010Z,95.80
2022-12-04T03:23:03.847Z,95.70
2022-12-04T03:24:03.813Z,95.70
2022-12-04T03:25:03.727Z,95.80
2022-12-04T03:26:03.703Z,95.80
2022-12-04T03:27:03.677Z,95.80
2022-12-04T03:28:03.682Z,95.90
2022-12-04T03:29:04.080Z,95.90
2022-12-04T03:30:03.690Z,95.90
2022-12-04T03:31:03.802Z,96.01
2022-12-04T03:32:03.641Z,96.01
2022-12-04T03:33:03.624Z,96.01
2022-12-04T03:34:03.627Z,96.22
2022-12-04T03:35:03.667Z,96.22
2022-12-04T03:36:03.920Z,96.22
2022-12-04T03:37:03.584Z,96.11
2022-12-04T03:38:03.595Z,96.22
2022-12-04T03:39:03.563Z,96.43
2022-12-04T03:40:03.566Z,96.53
2022-12-04T03:41:03.579Z,96.53
2022-12-04T03:42:03.537Z,96.53
2022-12-04T03:43:03.829Z,96.43
2022-12-04T03:44:03.515Z,96.47
2022-12-04T03:45:03.510Z,96.43
2022-12-04T03:46:03.601Z,96.53
2022-12-04T03:47:03.512Z,96.68
2022-12-04T03:48:03.495Z,96.89
2022-12-04T03:49:03.469Z,96.95
2022-12-04T03:50:03.768Z,97.05
2022-12-04T03:51:03.439Z,97.10
2022-12-04T03:52:03.428Z,97.10
2022-12-04T03:53:04.636Z,96.89
2022-12-04T03:54:03.417Z,96.78
2022-12-04T03:55:03.402Z,96.89
2022-12-04T03:56:03.401Z,97.00
2022-12-04T03:57:03.686Z,97.10
2022-12-04T03:58:03.386Z,97.10
2022-12-04T03:59:03.452Z,97.10
2022-12-04T04:00:03.836Z,97.10
2022-12-04T04:01:03.478Z,97.10
2022-12-04T04:02:03.390Z,97.20
2022-12-04T04:03:03.432Z,97.10
2022-12-04T04:04:03.602Z,97.00
2022-12-04T04:05:03.337Z,97.00
2022-12-04T04:06:03.354Z,97.20
2022-12-04T04:07:03.321Z,97.20
2022-12-04T04:08:03.332Z,97.31
2022-12-04T04:09:03.255Z,97.20
2022-12-04T04:10:03.263Z,97.10
2022-12-04T04:11:03.558Z,97.20
2022-12-04T04:12:03.260Z,97.20
2022-12-04T04:13:03.226Z,97.31
2022-12-04T04:14:03.214Z,97.10
2022-12-04T04:15:03.203Z,97.10
2022-12-04T04:16:03.269Z,97.20
2022-12-04T04:17:03.224Z,97.20
2022-12-04T04:18:03.477Z,97.31
2022-12-04T04:19:03.157Z,97.31
2022-12-04T04:20:03.151Z,97.41
2022-12-04T04:21:03.149Z,97.41
2022-12-04T04:22:03.133Z,97.31
2022-12-04T04:23:03.159Z,97.20
2022-12-04T04:24:03.134Z,97.00
2022-12-04T04:25:03.397Z,97.00
2022-12-04T04:26:03.093Z,97.00
2022-12-04T04:27:03.159Z,97.00
2022-12-04T04:28:03.077Z,97.00
2022-12-04T04:29:03.089Z,96.84
2022-12-04T04:30:03.075Z,96.84
2022-12-04T04:31:03.089Z,96.84
2022-12-04T04:32:04.337Z,96.68
2022-12-04T04:33:03.023Z,96.43
2022-12-04T04:34:03.022Z,96.58
2022-12-04T04:35:03.051Z,96.64
2022-12-04T04:36:03.007Z,96.74
2022-12-04T04:37:02.983Z,96.74
2022-12-04T04:38:02.967Z,96.74
2022-12-04T04:39:03.284Z,96.74
2022-12-04T04:40:02.963Z,96.84
2022-12-04T04:41:02.989Z,96.78
2022-12-04T04:42:02.928Z,96.68
2022-12-04T04:43:02.925Z,96.89
2022-12-04T04:44:02.909Z,97.05
2022-12-04T04:45:02.900Z,97.05
2022-12-04T04:46:03.255Z,97.00
2022-12-04T04:47:02.913Z,96.95
2022-12-04T04:48:02.893Z,97.00
2022-12-04T04:49:02.874Z,97.00
2022-12-04T04:50:02.860Z,96.95
2022-12-04T04:51:02.858Z,96.89
2022-12-04T04:52:02.836Z,96.84
2022-12-04T04:53:03.133Z,97.10
2022-12-04T04:54:02.836Z,97.16
2022-12-04T04:55:02.825Z,97.31
2022-12-04T04:56:02.797Z,97.41
2022-12-04T04:57:02.795Z,97.31
2022-12-04T04:58:02.782Z,97.41
2022-12-04T04:59:03.324Z,97.41
2022-12-04T05:00:03.048Z,97.41
2022-12-04T05:01:02.750Z,97.52
2022-12-04T05:02:02.863Z,97.52
2022-12-04T05:03:02.900Z,97.62
2022-12-04T05:04:02.727Z,97.62
2022-12-04T05:05:02.771Z,97.62
2022-12-04T05:06:03.437Z,97.62
2022-12-04T05:07:02.976Z,97.72
2022-12-04T05:08:02.753Z,97.62
2022-12-04T05:09:02.664Z,97.62
2022-12-04T05:10:02.675Z,97.72
2022-12-04T05:11:02.674Z,97.72
2022-12-04T05:12:02.622Z,97.72
2022-12-04T05:13:02.608Z,97.72
2022-12-04T05:14:02.901Z,97.83
2022-12-04T05:15:02.660Z,97.83
2022-12-04T05:16:02.675Z,97.83
2022-12-04T05:17:05.501Z,97.94
2022-12-04T05:18:02.578Z,97.83
2022-12-04T05:19:02.555Z,97.83
2022-12-04T05:20:02.554Z,97.83
2022-12-04T05:21:02.829Z,97.62
2022-12-04T05:22:02.546Z,97.62
2022-12-04T05:23:02.550Z,97.62
2022-12-04T05:24:02.512Z,97.62
2022-12-04T05:25:02.491Z,97.62
2022-12-04T05:26:02.485Z,97.52
2022-12-04T05:27:02.481Z,97.31
2022-12-04T05:28:02.776Z,97.20
2022-12-04T05:29:02.482Z,97.10
2022-12-04T05:30:02.485Z,97.10
2022-12-04T05:31:02.467Z,97.00
2022-12-04T05:32:02.429Z,97.00
2022-12-04T05:33:02.423Z,97.00
2022-12-04T05:34:02.410Z,97.20
2022-12-04T05:35:06.446Z,97.20
2022-12-04T05:36:02.406Z,97.31
2022-12-04T05:37:02.395Z,97.20
2022-12-04T05:38:02.375Z,97.00
2022-12-04T05:39:02.351Z,97.10
2022-12-04T05:40:02.374Z,97.00
2022-12-04T05:41:02.366Z,97.10
2022-12-04T05:42:02.607Z,97.31
2022-12-04T05:43:02.335Z,97.10
2022-12-04T05:44:02.302Z,97.00
2022-12-04T05:45:02.308Z,97.10
2022-12-04T05:46:02.284Z,97.10
2022-12-04T05:47:02.355Z,97.20
2022-12-04T05:48:03.063Z,97.10
2022-12-04T05:49:02.531Z,97.10
2022-12-04T05:50:02.254Z,97.20
2022-12-04T05:51:02.234Z,97.10
2022-12-04T05:52:02.226Z,97.10
2022-12-04T05:53:02.247Z,97.10
2022-12-04T05:54:02.205Z,97.10
2022-12-04T05:55:02.198Z,97.00
2022-12-04T05:56:02.469Z,97.00
2022-12-04T05:57:02.180Z,97.00
2022-12-04T05:58:02.163Z,96.95
2022-12-04T05:59:02.196Z,96.84
2022-12-04T06:00:02.156Z,96.84
2022-12-04T06:01:02.151Z,96.74
2022-12-04T06:02:02.191Z,96.78
2022-12-04T06:03:02.442Z,97.00
2022-12-04T06:04:02.098Z,97.00
2022-12-04T06:05:02.402Z,96.89
2022-12-04T06:06:02.093Z,96.78
2022-12-04T06:07:02.071Z,96.64
2022-12-04T06:08:02.148Z,96.74
2022-12-04T06:09:02.055Z,96.78
2022-12-04T06:10:02.348Z,96.84
2022-12-04T06:11:02.057Z,96.78
2022-12-04T06:12:02.018Z,96.74
2022-12-04T06:13:02.009Z,96.78
2022-12-04T06:14:01.997Z,96.68
2022-12-04T06:15:01.989Z,96.64
2022-12-04T06:16:02.069Z,96.64
2022-12-04T06:17:02.272Z,96.53
2022-12-04T06:18:01.954Z,96.53
2022-12-04T06:19:01.954Z,96.64
2022-12-04T06:20:04.297Z,96.64
2022-12-04T06:21:02.088Z,96.74
2022-12-04T06:22:01.921Z,96.84
2022-12-04T06:23:01.930Z,96.84
2022-12-04T06:24:02.197Z,96.84
2022-12-04T06:25:01.893Z,96.64
2022-12-04T06:26:06.790Z,96.64
2022-12-04T06:27:26.922Z,96.64
2022-12-04T06:28:01.860Z,96.74
2022-12-04T06:29:01.896Z,96.74
2022-12-04T06:30:01.839Z,96.74
2022-12-04T06:31:02.104Z,96.74
2022-12-04T06:32:01.921Z,96.74
2022-12-04T06:33:01.808Z,96.43
2022-12-04T06:34:01.805Z,96.43
2022-12-04T06:35:01.816Z,96.43
2022-12-04T06:36:01.836Z,96.53
2022-12-04T06:37:01.779Z,96.74
2022-12-04T06:38:03.110Z,96.74
2022-12-04T06:39:01.745Z,96.64
2022-12-04T06:40:01.755Z,96.64
2022-12-04T06:41:01.751Z,96.64
2022-12-04T06:42:01.738Z,96.64
2022-12-04T06:43:01.721Z,96.64
2022-12-04T06:44:01.730Z,96.74
2022-12-04T06:45:01.960Z,96.74
2022-12-04T06:46:01.770Z,96.84
2022-12-04T06:47:01.703Z,96.74
2022-12-04T06:48:01.674Z,96.64
2022-12-04T06:49:01.663Z,96.64
2022-12-04T06:50:01.675Z,96.64
2022-12-04T06:51:01.661Z,96.74
2022-12-04T06:52:02.008Z,96.64
2022-12-04T06:53:07.953Z,96.64
2022-12-04T06:54:01.612Z,96.64
2022-12-04T06:55:01.612Z,96.64
2022-12-04T06:56:01.599Z,96.43
2022-12-04T06:57:01.583Z,96.43
2022-12-04T06:58:01.562Z,96.43
2022-12-04T06:59:01.859Z,96.33
2022-12-04T07:00:01.540Z,96.33
2022-12-04T07:01:01.547Z,96.53
2022-12-04T07:02:01.585Z,96.43
2022-12-04T07:03:01.507Z,96.43
2022-12-04T07:04:01.506Z,96.43
2022-12-04T07:05:01.513Z,96.43
2022-12-04T07:06:01.754Z,96.64
2022-12-04T07:07:01.470Z,96.84
2022-12-04T07:08:01.517Z,96.95
2022-12-04T07:09:01.446Z,96.84
2022-12-04T07:10:01.428Z,96.74
2022-12-04T07:11:01.795Z,96.64
2022-12-04T07:12:01.419Z,96.53
2022-12-04T07:13:01.703Z,96.53
2022-12-04T07:14:01.401Z,96.53
2022-12-04T07:15:01.380Z,96.64
2022-12-04T07:16:01.438Z,96.74
2022-12-04T07:17:01.487Z,96.84
2022-12-04T07:18:01.354Z,96.74
2022-12-04T07:19:01.344Z,96.53
2022-12-04T07:20:01.609Z,96.33
2022-12-04T07:21:01.317Z,96.22
2022-12-04T07:22:01.324Z,96.17
2022-12-04T07:23:06.880Z,96.22
2022-12-04T07:24:01.305Z,96.22
2022-12-04T07:25:01.307Z,96.33
2022-12-04T07:26:01.275Z,96.43
2022-12-04T07:27:01.577Z,96.38
2022-12-04T07:28:01.258Z,96.28
2022-12-04T07:29:01.280Z,96.38
2022-12-04T07:30:01.262Z,96.49
2022-12-04T07:31:01.217Z,96.49
2022-12-04T07:32:01.299Z,96.49
2022-12-04T07:33:01.197Z,96.38
2022-12-04T07:34:01.480Z,96.38
2022-12-04T07:35:01.200Z,96.49
2022-12-04T07:36:01.174Z,96.38
2022-12-04T07:37:01.178Z,96.28
2022-12-04T07:38:01.163Z,96.28
2022-12-04T07:39:01.172Z,96.28
2022-12-04T07:40:01.169Z,96.38
2022-12-04T07:41:01.446Z,96.28
2022-12-04T07:42:01.165Z,96.17
2022-12-04T07:43:01.103Z,96.07
2022-12-04T07:44:01.093Z,96.17
2022-12-04T07:45:01.122Z,96.28
2022-12-04T07:46:01.135Z,96.17
2022-12-04T07:47:01.092Z,97.01
2022-12-04T07:48:01.043Z,99.05
2022-12-04T07:49:01.072Z,98.85
2022-12-04T07:50:01.056Z,97.80
2022-12-04T07:51:01.016Z,97.49
2022-12-04T07:52:01.006Z,96.97
2022-12-04T07:53:01.304Z,95.82
2022-12-04T07:54:04.128Z,95.55
2022-12-04T07:55:00.987Z,95.55
2022-12-04T07:56:00.972Z,95.65
2022-12-04T07:57:00.965Z,95.86
2022-12-04T07:58:00.951Z,95.86
2022-12-04T07:59:00.980Z,95.86
2022-12-04T08:00:00.937Z,95.86
2022-12-04T08:01:00.982Z,95.97
2022-12-04T08:02:01.056Z,96.17
2022-12-04T08:03:00.907Z,96.28
2022-12-04T08:04:01.060Z,96.28
2022-12-04T08:05:01.303Z,96.28
2022-12-04T08:06:00.876Z,96.07
2022-12-04T08:07:00.876Z,95.97
2022-12-04T08:08:00.890Z,95.97
2022-12-04T08:09:06.193Z,96.03
2022-12-04T08:10:00.883Z,96.03
2022-12-04T08:11:00.853Z,96.34
2022-12-04T08:12:01.091Z,96.03
2022-12-04T08:13:00.885Z,95.82
2022-12-04T08:14:00.813Z,95.92
2022-12-04T08:15:00.787Z,96.03
2022-12-04T08:16:00.781Z,95.61
2022-12-04T08:17:00.898Z,95.72
2022-12-04T08:18:00.750Z,95.40
2022-12-04T08:19:01.038Z,95.36
2022-12-04T08:20:00.732Z,95.29
2022-12-04T08:21:00.728Z,95.09
2022-12-04T08:22:00.715Z,94.94
2022-12-04T08:23:00.741Z,94.73
2022-12-04T08:24:00.872Z,94.88
2022-12-04T08:25:00.744Z,94.98
2022-12-04T08:26:01.042Z,95.04
2022-12-04T08:27:00.845Z,95.04
2022-12-04T08:28:00.912Z,95.04
2022-12-04T08:29:00.906Z,94.84
2022-12-04T08:30:00.890Z,94.94
2022-12-04T08:31:00.760Z,94.94
2022-12-04T08:32:00.735Z,94.88
2022-12-04T08:33:00.909Z,95.04
2022-12-04T08:34:00.783Z,95.04
2022-12-04T08:35:00.743Z,95.04
2022-12-04T08:36:00.588Z,95.09
2022-12-04T08:37:00.681Z,95.09
2022-12-04T08:38:00.599Z,95.29
2022-12-04T08:39:00.675Z,95.50
2022-12-04T08:40:00.816Z,95.50
2022-12-04T08:41:00.563Z,95.29
2022-12-04T08:42:00.557Z,95.29
2022-12-04T08:43:00.572Z,95.29
2022-12-04T08:44:00.521Z,95.82
2022-12-04T08:45:00.834Z,95.72
2022-12-04T08:46:00.969Z,95.50
2022-12-04T08:47:00.854Z,95.40
2022-12-04T08:48:00.545Z,95.67
2022-12-04T08:49:00.502Z,95.56
2022-12-04T08:50:00.638Z,95.46
2022-12-04T08:51:00.427Z,95.36
2022-12-04T08:52:00.414Z,95.36
2022-12-04T08:53:00.440Z,95.46
2022-12-04T08:54:00.843Z,95.25
2022-12-04T08:55:00.393Z,95.04
2022-12-04T08:56:00.401Z,95.09
2022-12-04T08:57:00.383Z,95.25
2022-12-04T08:58:00.362Z,95.46
2022-12-04T08:59:00.377Z,95.56
2022-12-04T09:00:00.332Z,95.67
2022-12-04T09:01:00.689Z,95.67
2022-12-04T09:02:00.371Z,95.56
2022-12-04T09:03:00.327Z,95.67
2022-12-04T09:04:00.419Z,95.56
2022-12-04T09:05:00.322Z,95.56
2022-12-04T09:06:00.266Z,95.46
2022-12-04T09:07:00.269Z,95.56
2022-12-04T09:08:00.613Z,95.46
2022-12-04T09:09:00.267Z,95.67
2022-12-04T09:10:00.568Z,95.56
2022-12-04T09:11:00.257Z,95.46
2022-12-04T09:12:00.219Z,95.56
2022-12-04T09:13:00.205Z,95.56
2022-12-04T09:14:00.238Z,95.78
2022-12-04T09:15:00.470Z,95.88
2022-12-04T09:16:00.227Z,95.88
2022-12-04T09:17:00.220Z,95.78
2022-12-04T09:18:00.160Z,95.56
2022-12-04T09:19:00.172Z,95.46
2022-12-04T09:20:01.354Z,95.36
2022-12-04T09:21:00.203Z,95.46
2022-12-04T09:22:00.408Z,95.67
2022-12-04T09:23:04.640Z,95.56
2022-12-04T09:24:00.100Z,95.46
2022-12-04T09:25:00.094Z,95.46
2022-12-04T09:26:00.099Z,95.36
2022-12-04T09:27:00.057Z,95.36
2022-12-04T09:28:00.044Z,95.46
2022-12-04T09:29:00.095Z,95.56
2022-12-04T09:30:00.107Z,95.67
2022-12-04T09:31:00.060Z,95.67
2022-12-04T09:32:00.005Z,95.56
2022-12-04T09:33:00.009Z,95.56
2022-12-04T09:34:00.299Z,95.67
2022-12-04T09:35:00.076Z,95.67
2022-12-04T09:35:59.963Z,95.56
2022-12-04T09:36:59.971Z,95.46
2022-12-04T09:37:59.961Z,95.36
2022-12-04T09:38:59.967Z,95.21
2022-12-04T09:39:59.939Z,95.15
2022-12-04T09:41:00.271Z,95.10
2022-12-04T09:41:59.912Z,95.10
2022-12-04T09:42:59.963Z,95.21
2022-12-04T09:43:59.944Z,95.31
2022-12-04T09:44:59.892Z,95.10
2022-12-04T09:45:59.933Z,95.00
2022-12-04T09:47:00.027Z,95.10
2022-12-04T09:48:00.134Z,95.31
2022-12-04T09:48:59.847Z,95.42
2022-12-04T09:49:59.829Z,95.42
2022-12-04T09:50:59.834Z,95.31
2022-12-04T09:51:59.835Z,95.21
2022-12-04T09:52:59.828Z,95.00
2022-12-04T09:53:59.806Z,95.00
2022-12-04T09:54:59.780Z,94.90
2022-12-04T09:55:59.805Z,94.48
2022-12-04T09:56:59.775Z,94.58
2022-12-04T09:58:01.991Z,94.69
2022-12-04T09:58:59.852Z,94.69
2022-12-04T10:00:00.020Z,94.90
2022-12-04T10:00:59.786Z,94.90
2022-12-04T10:01:59.723Z,94.69
2022-12-04T10:02:59.907Z,94.64
2022-12-04T10:04:05.673Z,94.58
2022-12-04T10:04:59.740Z,94.43
2022-12-04T10:05:59.669Z,94.23
2022-12-04T10:06:59.696Z,94.23
2022-12-04T10:07:59.735Z,94.37
2022-12-04T10:08:59.678Z,94.23
2022-12-04T10:09:59.693Z,94.12
2022-12-04T10:10:59.715Z,94.33
2022-12-04T10:11:59.967Z,94.23
2022-12-04T10:12:59.647Z,94.12
2022-12-04T10:13:59.640Z,94.02
2022-12-04T10:14:59.571Z,93.91
2022-12-04T10:15:59.635Z,94.12
2022-12-04T10:16:59.673Z,94.02
2022-12-04T10:17:59.561Z,93.81
2022-12-04T10:18:59.875Z,93.81
2022-12-04T10:19:59.549Z,93.91
2022-12-04T10:20:59.572Z,93.91
2022-12-04T10:21:59.532Z,93.81
2022-12-04T10:22:59.546Z,93.91
2022-12-04T10:23:59.535Z,94.23
2022-12-04T10:24:59.486Z,94.12
2022-12-04T10:25:59.785Z,93.91
2022-12-04T10:26:59.543Z,93.81
2022-12-04T10:27:59.450Z,93.81
2022-12-04T10:28:59.522Z,93.81
2022-12-04T10:29:59.616Z,93.60
2022-12-04T10:30:59.468Z,93.60
2022-12-04T10:31:59.484Z,93.50
2022-12-04T10:32:59.763Z,93.50
2022-12-04T10:33:59.422Z,93.60
2022-12-04T10:34:59.450Z,93.40
2022-12-04T10:35:59.412Z,93.50
2022-12-04T10:36:59.437Z,93.66
2022-12-04T10:37:59.384Z,93.77
2022-12-04T10:38:59.348Z,93.66
2022-12-04T10:39:59.617Z,93.56
2022-12-04T10:40:59.403Z,93.35
2022-12-04T10:41:59.965Z,93.35
2022-12-04T10:42:59.321Z,93.24
2022-12-04T10:43:59.408Z,92.93
2022-12-04T10:44:59.299Z,93.14
2022-12-04T10:45:59.250Z,93.35
2022-12-04T10:46:59.756Z,93.24
2022-12-04T10:47:59.329Z,93.14
2022-12-04T10:48:59.350Z,93.24
2022-12-04T10:49:59.294Z,93.35
2022-12-04T10:50:59.236Z,93.46
2022-12-04T10:51:59.298Z,93.24
2022-12-04T10:52:59.250Z,93.24
2022-12-04T10:53:59.487Z,93.14
2022-12-04T10:54:59.221Z,93.24
2022-12-04T10:55:59.174Z,93.35
2022-12-04T10:56:59.308Z,93.46
2022-12-04T10:57:59.200Z,93.46
2022-12-04T10:58:59.367Z,93.46
2022-12-04T10:59:59.592Z,93.14
2022-12-04T11:00:59.494Z,93.14
2022-12-04T11:02:04.654Z,93.24
2022-12-04T11:02:59.267Z,93.35
2022-12-04T11:03:59.104Z,93.24
2022-12-04T11:04:59.281Z,93.14
2022-12-04T11:05:59.442Z,93.14
2022-12-04T11:06:59.088Z,93.04
2022-12-04T11:07:59.784Z,93.24
2022-12-04T11:08:59.078Z,93.35
2022-12-04T11:09:59.256Z,93.46
2022-12-04T11:10:59.086Z,93.46
2022-12-04T11:11:59.124Z,93.35
2022-12-04T11:12:59.024Z,93.46
2022-12-04T11:13:58.978Z,93.14
2022-12-04T11:14:59.238Z,93.24
2022-12-04T11:15:59.076Z,93.14
2022-12-04T11:16:59.010Z,93.35
2022-12-04T11:17:59.007Z,93.46
2022-12-04T11:18:58.972Z,93.66
2022-12-04T11:19:58.961Z,93.56
2022-12-04T11:20:58.925Z,93.35
2022-12-04T11:21:59.191Z,93.24
2022-12-04T11:22:58.971Z,93.04
2022-12-04T11:23:58.922Z,92.93
2022-12-04T11:24:59.022Z,93.04
2022-12-04T11:26:05.238Z,93.41
2022-12-04T11:26:58.851Z,93.41
2022-12-04T11:27:58.863Z,93.41
2022-12-04T11:28:59.289Z,93.52
2022-12-04T11:29:59.092Z,93.20
2022-12-04T11:30:58.860Z,93.31
2022-12-04T11:32:05.602Z,93.52
2022-12-04T11:32:58.808Z,93.31
2022-12-04T11:33:58.847Z,93.31
2022-12-04T11:34:58.823Z,93.20
2022-12-04T11:35:59.020Z,93.10
2022-12-04T11:36:58.795Z,93.10
2022-12-04T11:37:58.719Z,92.99
2022-12-04T11:38:58.757Z,92.68
2022-12-04T11:39:59.048Z,92.68
2022-12-04T11:40:58.785Z,92.99
2022-12-04T11:41:58.701Z,93.10
2022-12-04T11:42:58.959Z,93.31
2022-12-04T11:44:00.459Z,93.20
2022-12-04T11:44:58.650Z,92.99
2022-12-04T11:45:58.648Z,92.79
2022-12-04T11:46:58.834Z,92.89
2022-12-04T11:47:58.630Z,92.99
2022-12-04T11:48:58.620Z,92.89
2022-12-04T11:49:59.158Z,92.79
2022-12-04T11:50:58.599Z,92.99
2022-12-04T11:51:58.602Z,93.20
2022-12-04T11:52:58.674Z,93.20
2022-12-04T11:53:58.577Z,93.31
2022-12-04T11:54:58.574Z,93.20
2022-12-04T11:55:58.577Z,93.10
2022-12-04T11:56:58.850Z,92.89
2022-12-04T11:57:58.551Z,92.89
2022-12-04T11:58:58.566Z,92.79
2022-12-04T11:59:58.900Z,93.10
2022-12-04T12:00:58.540Z,93.10
2022-12-04T12:01:58.979Z,93.20
2022-12-04T12:02:58.653Z,93.20
2022-12-04T12:03:58.774Z,93.20
2022-12-04T12:04:58.521Z,93.10
2022-12-04T12:05:58.519Z,92.79
2022-12-04T12:06:58.450Z,92.99
2022-12-04T12:08:02.490Z,92.99
2022-12-04T12:08:58.419Z,93.20
2022-12-04T12:09:58.715Z,93.41
2022-12-04T12:10:58.756Z,93.31
2022-12-04T12:11:58.387Z,93.52
2022-12-04T12:12:58.417Z,93.83
2022-12-04T12:13:58.382Z,94.24
2022-12-04T12:14:58.812Z,94.14
2022-12-04T12:15:58.375Z,94.14
2022-12-04T12:16:58.441Z,93.83
2022-12-04T12:17:58.675Z,93.62
2022-12-04T12:18:58.324Z,93.62
2022-12-04T12:19:58.552Z,93.62
2022-12-04T12:20:58.398Z,93.52
2022-12-04T12:22:03.454Z,93.46
2022-12-04T12:22:58.352Z,93.56
2022-12-04T12:23:58.283Z,93.62
2022-12-04T12:24:58.944Z,93.73
2022-12-04T12:25:58.326Z,93.93
2022-12-04T12:26:58.294Z,93.73
2022-12-04T12:27:58.226Z,93.62
2022-12-04T12:28:58.291Z,93.62
2022-12-04T12:29:58.568Z,93.73
2022-12-04T12:31:04.090Z,93.93
2022-12-04T12:31:58.310Z,93.83
2022-12-04T12:32:58.181Z,93.73
2022-12-04T12:33:58.176Z,93.62
2022-12-04T12:34:58.246Z,93.62
2022-12-04T12:35:58.166Z,93.52
2022-12-04T12:37:00.996Z,93.73
2022-12-04T12:37:58.476Z,93.73
2022-12-04T12:38:58.106Z,93.52
2022-12-04T12:39:58.699Z,93.52
2022-12-04T12:40:58.168Z,93.62
2022-12-04T12:41:58.216Z,93.62
2022-12-04T12:42:58.867Z,93.62
2022-12-04T12:43:58.087Z,93.73
2022-12-04T12:44:58.419Z,93.73
2022-12-04T12:45:58.195Z,93.73
2022-12-04T12:46:58.112Z,93.83
2022-12-04T12:47:58.027Z,93.93
2022-12-04T12:48:58.688Z,93.83
2022-12-04T12:49:58.303Z,93.87
2022-12-04T12:51:22.090Z,94.08
2022-12-04T12:51:58.011Z,94.18
2022-12-04T12:52:58.059Z,94.18